CYQM

Greater Moncton International Airport

Moncton, New Brunswick, Canada
METAR CYQM 200700Z 18005KT 10SM -RA BKN008 OVC016 03/02 A3024 RMK SF5SC3 SLP245
Observed Flight Rules
Feb-20 @ 07:00 UTC (34 minutes ago) Instrument Flight Rules
Wind Visibility Clouds Conditions
180° at 5 knots 10 miles
  • Broken at 800' AGL
  • Overcast at 1,600' AGL
  • Light Rain
Temperatures Readings
Current 3°C / 37°F
Dewpoint 2°C / 36°F
Humidity 93%
Altimeter 30.24" Hg
Pressure 1024.5 hPa
Elevation 71
METAR CYQM 200700Z 18005KT 10SM -RA BKN008 OVC016 03/02 A3024 RMK SF5SC3 SLP245
Observed Flight Rules
Feb-20 @ 07:00 UTC
(34 minutes ago)
IFR
Wind Visibility
180° at 5 knots 10 miles
Clouds
  • Broken at 800' AGL
  • Overcast at 1,600' AGL
Conditions
  • Light Rain
Temperature Dewpoint
3°C / 37°F 2°C / 36°F
Humidity Altimeter Pressure
93% 30.24" Hg 1024.5 hPa